Time;durP1;ratioP1;P1;durP2;ratioP2;P2;SDS_P1;SDS_P2;PMS_P1;PMS_P2;Temp;Humidity;BMP_temperature;BMP_pressure;BME280_temperature;BME280_humidity;BME280_pressure;Samples;Min_cycle;Max_cycle;Signal;HPM_P1;HPM_P2
2021/10/02 00:41:18;;;;;;;6.68;4.72;;;;;;;;;;5123675;27;20518;-84
2021/10/02 00:46:31;;;;;;;5.03;4.47;;;;;;;;;;5127242;27;20869;-85
2021/10/02 00:48:59;;;;;;;5.50;5.00;;;;;;;;;;5125007;27;21298;-86
2021/10/02 00:51:26;;;;;;;5.55;4.95;;;;;;;;;;5127311;27;20485;-83
2021/10/02 00:53:53;;;;;;;5.25;4.63;;;;;;;;;;5132014;27;20424;-84
2021/10/02 00:56:20;;;;;;;6.60;4.90;;;;;;;;;;5127351;27;20397;-84
2021/10/02 00:58:50;;;;;;;5.53;4.88;;;;;;;;;;5124926;27;20393;-85
2021/10/02 01:01:22;;;;;;;6.53;5.10;;;;;;;;;;5130411;27;20400;-84
2021/10/02 01:04:04;;;;;;;6.03;4.90;;;;;;;;;;5128235;27;20401;-84
2021/10/02 01:06:49;;;;;;;6.68;5.20;;;;;;;;;;5126859;27;20400;-83
2021/10/02 01:09:28;;;;;;;6.47;5.10;;;;;;;;;;5130429;27;20408;-84
2021/10/02 01:12:03;;;;;;;6.43;5.30;;;;;;;;;;5126652;27;20400;-84
2021/10/02 01:14:38;;;;;;;6.78;5.18;;;;;;;;;;5124613;27;20401;-84
2021/10/02 01:17:15;;;;;;;5.95;5.03;;;;;;;;;;5122423;27;20449;-84
2021/10/02 01:20:04;;;;;;;6.22;5.25;;;;;;;;;;5125069;27;20416;-84
2021/10/02 01:22:54;;;;;;;6.43;5.60;;;;;;;;;;5121981;27;20420;-84
2021/10/02 01:25:30;;;;;;;7.63;5.93;;;;;;;;;;5129821;27;20529;-84
2021/10/02 01:28:04;;;;;;;10.50;6.82;;;;;;;;;;5124061;27;20396;-85
2021/10/02 01:30:50;;;;;;;9.40;7.18;;;;;;;;;;5124947;27;20397;-84
2021/10/02 01:33:32;;;;;;;7.80;6.43;;;;;;;;;;5127764;27;21333;-85
2021/10/02 01:36:17;;;;;;;7.80;6.47;;;;;;;;;;5125181;27;20405;-85
2021/10/02 01:47:11;;;;;;;7.30;5.93;;;;;;;;;;5122071;27;20443;-84
2021/10/02 01:49:40;;;;;;;6.80;5.75;;;;;;;;;;5125760;27;20401;-84
2021/10/02 01:52:08;;;;;;;6.78;5.63;;;;;;;;;;5123935;27;20884;-83
2021/10/02 01:54:37;;;;;;;8.35;5.90;;;;;;;;;;5122466;27;20402;-85
2021/10/02 01:57:07;;;;;;;6.72;5.57;;;;;;;;;;5124657;27;21395;-84
2021/10/02 01:59:36;;;;;;;7.05;5.47;;;;;;;;;;5124300;27;20820;-84
2021/10/02 02:02:06;;;;;;;7.90;5.65;;;;;;;;;;5127133;27;20400;-84
2021/10/02 02:04:34;;;;;;;5.90;5.30;;;;;;;;;;5125949;27;20392;-85
2021/10/02 02:07:02;;;;;;;7.78;6.00;;;;;;;;;;5121216;27;20504;-84
2021/10/02 02:09:37;;;;;;;8.35;5.65;;;;;;;;;;5127122;27;20397;-84
2021/10/02 02:12:11;;;;;;;6.97;5.90;;;;;;;;;;5125664;27;20413;-85
2021/10/02 02:14:41;;;;;;;6.90;5.53;;;;;;;;;;5124268;27;20519;-85
2021/10/02 02:17:10;;;;;;;7.13;5.45;;;;;;;;;;5124052;27;20403;-85
2021/10/02 02:19:37;;;;;;;7.18;5.60;;;;;;;;;;5124797;27;20417;-85
2021/10/02 02:22:05;;;;;;;7.15;5.40;;;;;;;;;;5126983;27;20401;-85
2021/10/02 02:24:33;;;;;;;6.80;5.50;;;;;;;;;;5118359;27;20409;-84
2021/10/02 02:27:03;;;;;;;8.38;5.80;;;;;;;;;;5122720;27;20481;-85
2021/10/02 02:29:32;;;;;;;7.07;5.25;;;;;;;;;;5124290;27;20794;-84
2021/10/02 02:32:01;;;;;;;6.78;5.38;;;;;;;;;;5126336;27;20408;-85
2021/10/02 02:34:29;;;;;;;7.72;5.75;;;;;;;;;;5126222;27;20397;-84
2021/10/02 02:36:56;;;;;;;7.68;5.57;;;;;;;;;;5122892;27;20734;-85
2021/10/02 02:39:24;;;;;;;6.75;5.22;;;;;;;;;;5122137;27;20404;-84
2021/10/02 02:41:50;;;;;;;6.25;5.57;;;;;;;;;;5126028;27;20895;-85
2021/10/02 02:44:18;;;;;;;7.90;5.60;;;;;;;;;;5122341;27;20397;-84
2021/10/02 02:46:54;;;;;;;9.52;5.35;;;;;;;;;;5126432;27;20393;-85
2021/10/02 02:49:28;;;;;;;6.28;5.50;;;;;;;;;;5126419;27;20928;-86
2021/10/02 02:52:01;;;;;;;7.18;5.25;;;;;;;;;;5122031;27;20881;-85
2021/10/02 02:54:34;;;;;;;6.95;5.25;;;;;;;;;;5122702;27;20795;-84
2021/10/02 02:57:08;;;;;;;6.90;5.50;;;;;;;;;;5126516;27;20397;-85
2021/10/02 02:59:39;;;;;;;7.72;6.00;;;;;;;;;;5127816;27;20417;-86
2021/10/02 03:02:07;;;;;;;7.20;5.95;;;;;;;;;;5125369;27;20495;-85
2021/10/02 03:04:36;;;;;;;6.38;5.65;;;;;;;;;;5120522;27;20420;-84
2021/10/02 03:07:06;;;;;;;6.80;5.23;;;;;;;;;;5126266;27;21026;-85
2021/10/02 03:09:36;;;;;;;6.10;5.40;;;;;;;;;;5124368;27;20419;-84
2021/10/02 03:12:05;;;;;;;7.93;5.80;;;;;;;;;;5125586;27;20389;-85
2021/10/02 03:14:32;;;;;;;6.95;5.40;;;;;;;;;;5121614;27;20395;-85
2021/10/02 03:17:01;;;;;;;6.40;5.25;;;;;;;;;;5124019;27;20450;-85
2021/10/02 03:19:30;;;;;;;6.45;5.50;;;;;;;;;;5125525;27;20401;-86
2021/10/02 03:21:58;;;;;;;7.50;5.85;;;;;;;;;;5120786;27;20397;-85
2021/10/02 03:24:26;;;;;;;7.78;5.65;;;;;;;;;;5096721;27;20493;-85
2021/10/02 03:26:54;;;;;;;8.73;5.78;;;;;;;;;;5126501;28;20742;-84
2021/10/02 03:29:23;;;;;;;7.90;5.90;;;;;;;;;;5122113;27;20400;-85
2021/10/02 03:31:51;;;;;;;10.38;6.00;;;;;;;;;;5125241;27;20487;-85
2021/10/02 03:34:18;;;;;;;7.07;5.93;;;;;;;;;;5119902;27;20451;-84
2021/10/02 03:36:46;;;;;;;7.20;6.20;;;;;;;;;;5125854;27;20397;-84
2021/10/02 03:39:16;;;;;;;7.60;6.25;;;;;;;;;;5122985;27;20446;-85
2021/10/02 03:41:43;;;;;;;8.73;5.90;;;;;;;;;;5122271;27;20903;-85
2021/10/02 03:44:10;;;;;;;7.05;5.97;;;;;;;;;;5123162;27;20399;-85
2021/10/02 03:46:37;;;;;;;6.65;5.95;;;;;;;;;;5123955;27;20393;-84
2021/10/02 03:49:04;;;;;;;7.88;5.97;;;;;;;;;;5121654;27;20842;-85
2021/10/02 03:51:31;;;;;;;7.55;6.05;;;;;;;;;;5122784;27;20397;-85
2021/10/02 03:53:58;;;;;;;8.80;6.30;;;;;;;;;;5126087;27;20400;-85
2021/10/02 03:56:31;;;;;;;6.65;5.95;;;;;;;;;;5119333;27;20401;-84
2021/10/02 03:58:57;;;;;;;8.70;6.05;;;;;;;;;;5117471;27;20397;-85
2021/10/02 04:01:24;;;;;;;8.52;6.30;;;;;;;;;;5124319;27;21047;-85
2021/10/02 04:03:51;;;;;;;7.47;5.93;;;;;;;;;;5122150;27;20400;-84
2021/10/02 04:06:18;;;;;;;8.32;6.60;;;;;;;;;;5126466;27;20397;-84
2021/10/02 04:08:45;;;;;;;8.88;6.40;;;;;;;;;;5125368;27;20404;-84
2021/10/02 04:11:11;;;;;;;8.10;6.05;;;;;;;;;;5129110;27;20393;-85
2021/10/02 04:13:40;;;;;;;7.53;5.82;;;;;;;;;;5128107;27;20885;-86
2021/10/02 04:16:06;;;;;;;7.28;6.38;;;;;;;;;;5129873;27;20397;-85
2021/10/02 04:18:34;;;;;;;8.15;6.53;;;;;;;;;;5130643;27;20437;-85
2021/10/02 04:21:01;;;;;;;7.60;5.85;;;;;;;;;;5129715;27;21319;-84
2021/10/02 04:23:30;;;;;;;7.72;5.72;;;;;;;;;;5129779;27;20389;-84
2021/10/02 04:25:57;;;;;;;7.10;6.25;;;;;;;;;;5125655;27;20492;-85
2021/10/02 04:28:24;;;;;;;7.15;6.38;;;;;;;;;;5129769;27;20868;-85
2021/10/02 04:30:52;;;;;;;7.47;6.32;;;;;;;;;;5129048;27;20399;-84
2021/10/02 04:33:19;;;;;;;7.35;5.93;;;;;;;;;;5129594;27;20392;-85
2021/10/02 04:35:46;;;;;;;7.32;6.10;;;;;;;;;;5129500;27;20488;-85
2021/10/02 04:38:13;;;;;;;8.68;6.38;;;;;;;;;;5122386;27;20395;-84
2021/10/02 04:40:42;;;;;;;7.60;6.10;;;;;;;;;;5127359;27;20413;-85
2021/10/02 04:43:09;;;;;;;8.50;6.20;;;;;;;;;;5129039;27;20397;-85
2021/10/02 04:45:35;;;;;;;8.48;6.20;;;;;;;;;;5129854;27;20798;-84
2021/10/02 04:48:04;;;;;;;7.78;6.32;;;;;;;;;;5124871;27;20416;-85
2021/10/02 04:50:32;;;;;;;8.85;6.18;;;;;;;;;;5124584;27;20450;-85
2021/10/02 04:53:00;;;;;;;7.72;6.20;;;;;;;;;;5125253;27;20404;-85
2021/10/02 04:55:26;;;;;;;8.43;6.15;;;;;;;;;;5128685;27;20428;-85
2021/10/02 04:57:53;;;;;;;7.07;6.10;;;;;;;;;;5125472;27;21035;-85
2021/10/02 05:00:20;;;;;;;8.13;6.40;;;;;;;;;;5127372;27;20547;-85
2021/10/02 05:02:47;;;;;;;9.07;6.63;;;;;;;;;;5127420;27;20904;-85
2021/10/02 05:05:16;;;;;;;9.02;6.78;;;;;;;;;;5127083;27;20400;-85
2021/10/02 05:07:43;;;;;;;8.55;6.88;;;;;;;;;;5127965;27;20404;-85
2021/10/02 05:10:10;;;;;;;8.70;6.65;;;;;;;;;;5128219;27;20738;-85
2021/10/02 05:12:37;;;;;;;8.27;6.43;;;;;;;;;;5126718;27;20396;-84
2021/10/02 05:15:04;;;;;;;8.48;6.80;;;;;;;;;;5128052;27;20790;-85
2021/10/02 05:17:31;;;;;;;7.72;6.50;;;;;;;;;;5128747;27;20868;-83
2021/10/02 05:19:57;;;;;;;7.70;6.40;;;;;;;;;;5129272;27;20404;-86
2021/10/02 05:22:26;;;;;;;9.63;7.15;;;;;;;;;;5127996;27;20409;-83
2021/10/02 05:24:52;;;;;;;7.25;6.10;;;;;;;;;;5128389;27;20397;-84
2021/10/02 05:27:19;;;;;;;7.47;6.45;;;;;;;;;;5125071;27;20399;-86
2021/10/02 05:29:48;;;;;;;9.73;6.57;;;;;;;;;;5127945;27;20408;-85
2021/10/02 05:32:15;;;;;;;8.18;6.93;;;;;;;;;;5128058;27;20397;-86
2021/10/02 05:34:42;;;;;;;10.50;6.60;;;;;;;;;;5125098;27;20752;-86
2021/10/02 05:37:09;;;;;;;9.55;7.15;;;;;;;;;;5123388;27;20396;-85
2021/10/02 05:39:38;;;;;;;9.05;6.97;;;;;;;;;;5121682;27;20401;-87
2021/10/02 05:42:05;;;;;;;9.10;6.85;;;;;;;;;;5120391;27;20416;-86
2021/10/02 05:44:33;;;;;;;9.90;6.70;;;;;;;;;;5123151;27;20419;-85
2021/10/02 05:47:03;;;;;;;9.68;6.63;;;;;;;;;;5121275;27;20483;-84
2021/10/02 05:49:30;;;;;;;9.85;6.15;;;;;;;;;;5125276;27;20757;-85
2021/10/02 05:51:57;;;;;;;10.38;6.72;;;;;;;;;;5125662;27;20397;-86
2021/10/02 05:54:23;;;;;;;8.88;6.90;;;;;;;;;;5119827;27;20596;-86
2021/10/02 05:56:54;;;;;;;7.38;6.32;;;;;;;;;;5125028;27;20397;-84
2021/10/02 05:59:21;;;;;;;8.93;6.45;;;;;;;;;;5133699;27;20646;-85
2021/10/02 06:01:47;;;;;;;7.45;6.22;;;;;;;;;;5135834;27;20413;-86
2021/10/02 06:04:14;;;;;;;8.20;6.55;;;;;;;;;;5135500;27;20377;-84
2021/10/02 06:06:41;;;;;;;9.32;6.43;;;;;;;;;;5137884;27;20389;-85
2021/10/02 06:09:08;;;;;;;9.85;6.35;;;;;;;;;;5132751;27;20397;-86
2021/10/02 06:11:34;;;;;;;8.85;6.82;;;;;;;;;;5138806;27;20400;-85
2021/10/02 06:14:03;;;;;;;9.68;6.30;;;;;;;;;;5136714;27;20408;-85
2021/10/02 06:16:30;;;;;;;7.93;6.25;;;;;;;;;;5141240;27;20636;-85
2021/10/02 06:18:57;;;;;;;9.00;5.82;;;;;;;;;;5138958;27;20464;-85
2021/10/02 06:21:24;;;;;;;11.40;6.43;;;;;;;;;;5133672;27;20523;-85
2021/10/02 06:23:50;;;;;;;11.23;6.65;;;;;;;;;;5130608;27;20406;-85
2021/10/02 06:26:17;;;;;;;11.27;6.55;;;;;;;;;;5127169;27;20389;-85
2021/10/02 06:28:44;;;;;;;9.10;6.45;;;;;;;;;;5125532;27;20870;-85
2021/10/02 06:31:12;;;;;;;8.02;6.28;;;;;;;;;;5125438;27;20407;-85
2021/10/02 06:33:39;;;;;;;8.95;6.57;;;;;;;;;;5128461;27;20445;-85
2021/10/02 06:36:06;;;;;;;10.43;6.50;;;;;;;;;;5125288;27;20749;-86
2021/10/02 06:38:35;;;;;;;10.70;6.70;;;;;;;;;;5131008;27;20396;-84
2021/10/02 06:41:02;;;;;;;8.87;6.53;;;;;;;;;;5142644;27;20511;-84
2021/10/02 06:43:29;;;;;;;9.77;6.57;;;;;;;;;;5131607;27;20885;-85
2021/10/02 06:45:56;;;;;;;9.32;7.13;;;;;;;;;;5129338;27;20385;-85
2021/10/02 06:48:24;;;;;;;9.88;7.28;;;;;;;;;;5125258;27;20943;-84
2021/10/02 06:50:51;;;;;;;9.05;6.90;;;;;;;;;;5126112;27;20389;-86
2021/10/02 06:53:18;;;;;;;11.23;7.40;;;;;;;;;;5129830;27;20402;-85
2021/10/02 06:55:45;;;;;;;10.18;6.95;;;;;;;;;;5118097;27;20862;-84
2021/10/02 06:58:12;;;;;;;9.15;7.25;;;;;;;;;;5122159;27;20412;-84
2021/10/02 07:00:39;;;;;;;10.60;7.53;;;;;;;;;;5128301;27;20397;-86
2021/10/02 07:03:07;;;;;;;12.18;7.60;;;;;;;;;;5124901;27;20884;-84
2021/10/02 07:05:35;;;;;;;11.75;7.75;;;;;;;;;;5123640;27;20401;-85
2021/10/02 07:08:02;;;;;;;10.27;7.73;;;;;;;;;;5126838;27;20484;-85
2021/10/02 07:10:29;;;;;;;10.80;7.70;;;;;;;;;;5126148;27;20400;-84
2021/10/02 07:12:56;;;;;;;10.47;7.43;;;;;;;;;;5122806;27;20389;-84
2021/10/02 07:15:23;;;;;;;11.00;7.80;;;;;;;;;;5122842;27;21123;-85
2021/10/02 07:17:50;;;;;;;10.27;7.90;;;;;;;;;;5122867;27;20412;-85
2021/10/02 07:20:17;;;;;;;9.95;7.90;;;;;;;;;;5125664;27;20404;-86
2021/10/02 07:22:45;;;;;;;10.90;7.93;;;;;;;;;;5126612;28;20792;-85
2021/10/02 07:25:14;;;;;;;11.13;7.90;;;;;;;;;;5114978;27;21115;-85
2021/10/02 07:27:42;;;;;;;10.90;8.38;;;;;;;;;;5115505;27;20406;-84
2021/10/02 07:30:11;;;;;;;10.57;7.82;;;;;;;;;;5118872;28;20412;-85
2021/10/02 07:32:38;;;;;;;13.40;8.32;;;;;;;;;;5119176;27;20688;-86
2021/10/02 07:35:06;;;;;;;13.03;9.07;;;;;;;;;;5126286;27;20493;-85
2021/10/02 07:37:33;;;;;;;12.88;9.55;;;;;;;;;;5121955;27;20402;-85
2021/10/02 07:40:01;;;;;;;12.05;9.75;;;;;;;;;;5113425;27;20408;-85
2021/10/02 07:42:30;;;;;;;14.18;9.77;;;;;;;;;;5112668;27;20410;-85
2021/10/02 07:44:59;;;;;;;11.50;9.45;;;;;;;;;;5121482;27;20740;-85
2021/10/02 07:47:28;;;;;;;13.73;9.02;;;;;;;;;;5114560;27;20895;-85
2021/10/02 07:49:56;;;;;;;12.77;9.40;;;;;;;;;;5114795;27;20407;-84
2021/10/02 07:52:23;;;;;;;12.70;8.95;;;;;;;;;;5122850;27;20461;-85
2021/10/02 07:54:51;;;;;;;12.45;9.30;;;;;;;;;;5119621;27;20444;-86
2021/10/02 07:57:20;;;;;;;15.10;9.50;;;;;;;;;;5128954;27;20802;-84
2021/10/02 07:59:48;;;;;;;14.88;9.27;;;;;;;;;;5126790;27;20403;-86
2021/10/02 08:02:19;;;;;;;12.75;8.93;;;;;;;;;;5129761;27;20413;-85
2021/10/02 08:04:47;;;;;;;12.05;9.02;;;;;;;;;;5126514;27;20408;-88
2021/10/02 08:07:15;;;;;;;12.80;9.50;;;;;;;;;;5123671;27;20814;-85
2021/10/02 08:09:42;;;;;;;14.18;10.05;;;;;;;;;;5124690;27;20780;-85
2021/10/02 08:12:10;;;;;;;12.33;9.60;;;;;;;;;;5127671;27;20492;-84
2021/10/02 08:14:38;;;;;;;13.45;9.68;;;;;;;;;;5128012;27;20407;-84
2021/10/02 08:17:07;;;;;;;13.05;9.57;;;;;;;;;;5128369;27;20391;-85
2021/10/02 08:19:35;;;;;;;14.10;9.60;;;;;;;;;;5128362;27;20896;-85
2021/10/02 08:22:04;;;;;;;12.17;8.70;;;;;;;;;;5124813;27;20508;-85
2021/10/02 08:24:32;;;;;;;15.77;9.43;;;;;;;;;;5125062;27;20401;-85
2021/10/02 08:26:59;;;;;;;14.17;9.57;;;;;;;;;;5125428;27;20446;-85
2021/10/02 08:29:26;;;;;;;12.75;9.40;;;;;;;;;;5125479;27;20393;-85
2021/10/02 08:31:55;;;;;;;11.95;8.73;;;;;;;;;;5127656;27;21021;-84
2021/10/02 08:34:22;;;;;;;15.07;9.40;;;;;;;;;;5124270;27;20439;-85
2021/10/02 08:36:49;;;;;;;11.02;8.63;;;;;;;;;;5127933;27;20401;-86
2021/10/02 08:39:16;;;;;;;12.23;8.88;;;;;;;;;;5128039;27;20405;-85
2021/10/02 08:41:45;;;;;;;12.30;8.75;;;;;;;;;;5128287;27;20405;-86
2021/10/02 08:44:16;;;;;;;11.25;8.60;;;;;;;;;;5121445;27;20405;-85
2021/10/02 08:46:45;;;;;;;10.48;8.48;;;;;;;;;;5128410;27;20772;-86
2021/10/02 08:49:37;;;;;;;12.85;8.52;;;;;;;;;;5126790;27;20401;-84
2021/10/02 08:52:06;;;;;;;10.40;8.60;;;;;;;;;;5125513;27;20411;-84
2021/10/02 08:54:36;;;;;;;13.88;8.93;;;;;;;;;;5127602;27;20432;-84
2021/10/02 08:57:06;;;;;;;11.05;8.77;;;;;;;;;;5127850;27;20392;-86
2021/10/02 08:59:34;;;;;;;11.55;8.50;;;;;;;;;;5125825;27;20454;-84
2021/10/02 09:02:00;;;;;;;12.30;8.68;;;;;;;;;;5127743;27;20413;-84
2021/10/02 09:04:29;;;;;;;10.47;8.17;;;;;;;;;;5122678;27;20495;-84
2021/10/02 09:06:57;;;;;;;14.45;8.60;;;;;;;;;;5125411;27;20892;-85
2021/10/02 09:09:24;;;;;;;11.32;8.30;;;;;;;;;;5125122;27;20396;-85
2021/10/02 09:11:52;;;;;;;11.50;8.48;;;;;;;;;;5124009;27;20401;-85
2021/10/02 09:14:18;;;;;;;11.02;8.65;;;;;;;;;;5128389;27;20409;-85
2021/10/02 09:16:45;;;;;;;11.23;8.20;;;;;;;;;;5126406;27;20405;-85
2021/10/02 09:19:12;;;;;;;12.55;8.98;;;;;;;;;;5127467;27;20392;-86
2021/10/02 09:21:45;;;;;;;12.43;8.98;;;;;;;;;;5109081;27;20500;-85
2021/10/02 09:24:22;;;;;;;11.85;8.35;;;;;;;;;;5128056;27;20907;-86
2021/10/02 09:26:49;;;;;;;14.70;9.63;;;;;;;;;;5127233;27;20453;-85
2021/10/02 09:29:17;;;;;;;13.63;8.68;;;;;;;;;;5127602;27;20396;-86
2021/10/02 09:31:44;;;;;;;11.77;8.93;;;;;;;;;;5127299;27;20399;-85
2021/10/02 09:34:22;;;;;;;11.27;8.27;;;;;;;;;;5131270;27;20405;-85
2021/10/02 09:36:50;;;;;;;11.45;8.68;;;;;;;;;;5124607;27;20396;-85
2021/10/02 09:39:17;;;;;;;13.18;8.30;;;;;;;;;;5129132;27;20393;-86
2021/10/02 09:41:48;;;;;;;10.23;8.02;;;;;;;;;;5126969;27;20457;-85
2021/10/02 09:44:22;;;;;;;9.10;7.25;;;;;;;;;;5127361;27;20778;-86
2021/10/02 09:46:48;;;;;;;9.82;7.78;;;;;;;;;;5126655;27;20433;-86
2021/10/02 09:49:15;;;;;;;11.15;8.10;;;;;;;;;;5129415;27;20393;-85
2021/10/02 09:51:45;;;;;;;11.50;8.30;;;;;;;;;;5126395;27;20899;-85
2021/10/02 09:54:38;;;;;;;11.23;8.37;;;;;;;;;;5123075;27;20391;-85
2021/10/02 09:57:09;;;;;;;12.35;8.13;;;;;;;;;;5123768;27;20405;-85
2021/10/02 09:59:36;;;;;;;10.75;8.35;;;;;;;;;;5124566;27;20404;-85
2021/10/02 10:02:13;;;;;;;11.50;7.90;;;;;;;;;;5126405;27;20427;-77
2021/10/02 10:04:46;;;;;;;12.05;8.30;;;;;;;;;;5120657;27;20437;-77
2021/10/02 10:07:12;;;;;;;10.50;8.05;;;;;;;;;;5122574;27;20401;-76
2021/10/02 10:09:41;;;;;;;10.80;7.35;;;;;;;;;;5129613;27;20412;-86
2021/10/02 10:12:08;;;;;;;9.90;7.35;;;;;;;;;;5130489;27;20405;-83
2021/10/02 10:14:36;;;;;;;9.95;7.40;;;;;;;;;;5126234;27;20426;-84
2021/10/02 10:17:08;;;;;;;9.05;6.72;;;;;;;;;;5126109;27;20397;-83
2021/10/02 10:19:35;;;;;;;10.20;7.20;;;;;;;;;;5126179;27;20449;-84
2021/10/02 10:22:08;;;;;;;8.63;6.70;;;;;;;;;;5126739;27;20461;-83
2021/10/02 10:24:35;;;;;;;7.70;6.35;;;;;;;;;;5127363;27;20396;-83
2021/10/02 10:27:04;;;;;;;7.35;5.57;;;;;;;;;;5120282;27;20396;-84
2021/10/02 10:29:40;;;;;;;7.72;5.95;;;;;;;;;;5124926;27;20389;-83
2021/10/02 10:32:08;;;;;;;8.37;6.40;;;;;;;;;;5126394;27;20443;-84
2021/10/02 10:34:39;;;;;;;7.45;6.05;;;;;;;;;;5122725;27;20401;-83
2021/10/02 10:37:06;;;;;;;6.53;5.65;;;;;;;;;;5124467;27;20421;-84
2021/10/02 10:39:34;;;;;;;7.30;5.57;;;;;;;;;;5120549;27;20831;-84
2021/10/02 10:42:04;;;;;;;9.23;6.20;;;;;;;;;;5124843;27;20895;-83
2021/10/02 10:44:32;;;;;;;8.27;6.30;;;;;;;;;;5126875;27;20877;-84
2021/10/02 10:46:59;;;;;;;9.00;6.57;;;;;;;;;;5126299;27;20397;-84
2021/10/02 10:49:26;;;;;;;8.60;6.07;;;;;;;;;;5123744;27;20419;-83
2021/10/02 10:51:58;;;;;;;7.68;6.00;;;;;;;;;;5125617;27;20442;-84
2021/10/02 10:54:25;;;;;;;7.45;5.75;;;;;;;;;;5120183;27;20404;-85
2021/10/02 10:56:54;;;;;;;6.70;6.00;;;;;;;;;;5123168;27;20435;-82
2021/10/02 10:59:23;;;;;;;9.50;7.07;;;;;;;;;;5125987;27;20397;-84
2021/10/02 11:01:51;;;;;;;8.98;7.00;;;;;;;;;;5123333;27;20996;-84
2021/10/02 11:04:36;;;;;;;9.27;7.55;;;;;;;;;;5122214;27;20457;-83
2021/10/02 11:07:04;;;;;;;8.63;6.95;;;;;;;;;;5119401;27;20432;-84
2021/10/02 11:09:39;;;;;;;7.75;6.05;;;;;;;;;;5123618;27;20393;-85
2021/10/02 11:12:07;;;;;;;6.80;5.70;;;;;;;;;;5122150;27;20888;-83
2021/10/02 11:15:02;;;;;;;8.25;6.32;;;;;;;;;;5116791;27;20406;-85
2021/10/02 11:17:46;;;;;;;8.75;6.97;;;;;;;;;;5111856;27;20413;-86
2021/10/02 11:20:40;;;;;;;9.07;6.80;;;;;;;;;;5115267;27;20407;-86
2021/10/02 11:23:50;;;;;;;8.35;6.28;;;;;;;;;;5116635;27;20835;-83
2021/10/02 11:26:21;;;;;;;8.88;7.03;;;;;;;;;;5116214;27;20443;-83
2021/10/02 11:28:51;;;;;;;9.43;7.07;;;;;;;;;;5119956;27;20477;-83
2021/10/02 11:31:21;;;;;;;9.80;7.43;;;;;;;;;;5118767;27;20417;-83
2021/10/02 11:33:49;;;;;;;8.18;7.03;;;;;;;;;;5118377;28;20393;-83
2021/10/02 11:36:45;;;;;;;9.33;6.90;;;;;;;;;;5119939;27;20404;-82
2021/10/02 11:39:15;;;;;;;7.43;5.93;;;;;;;;;;5118823;27;20414;-83
2021/10/02 11:41:45;;;;;;;9.52;6.45;;;;;;;;;;5117751;27;20795;-82
2021/10/02 11:44:13;;;;;;;7.47;6.43;;;;;;;;;;5119486;27;20503;-84
2021/10/02 11:46:42;;;;;;;7.93;5.70;;;;;;;;;;5122586;27;20409;-86
2021/10/02 11:49:15;;;;;;;7.40;6.03;;;;;;;;;;5112396;27;20927;-87
2021/10/02 11:51:42;;;;;;;7.43;5.77;;;;;;;;;;5121890;27;20465;-86
2021/10/02 11:54:17;;;;;;;7.45;6.05;;;;;;;;;;5122309;27;20892;-87
2021/10/02 11:56:45;;;;;;;9.23;6.30;;;;;;;;;;5122218;27;20467;-87
2021/10/02 11:59:12;;;;;;;9.55;7.43;;;;;;;;;;5125282;28;20787;-87
2021/10/02 12:01:43;;;;;;;10.45;7.72;;;;;;;;;;5122815;27;20412;-86
2021/10/02 12:04:12;;;;;;;8.93;7.20;;;;;;;;;;5114835;27;20441;-87
2021/10/02 12:06:43;;;;;;;9.73;7.13;;;;;;;;;;5118813;27;20393;-88
2021/10/02 12:09:12;;;;;;;9.38;7.38;;;;;;;;;;5121615;27;20405;-86
2021/10/02 12:11:45;;;;;;;10.98;8.07;;;;;;;;;;5113179;27;20808;-87
2021/10/02 12:14:14;;;;;;;11.35;8.32;;;;;;;;;;5116933;27;20417;-87
2021/10/02 12:16:43;;;;;;;11.32;7.60;;;;;;;;;;5114373;27;20497;-83
2021/10/02 12:19:11;;;;;;;10.65;7.47;;;;;;;;;;5115386;27;20425;-86
2021/10/02 12:21:41;;;;;;;10.07;8.27;;;;;;;;;;5116298;27;20389;-87
2021/10/02 12:24:13;;;;;;;9.57;7.30;;;;;;;;;;5113961;27;20417;-87
2021/10/02 12:26:43;;;;;;;11.25;8.15;;;;;;;;;;5104285;27;20890;-87
2021/10/02 12:29:16;;;;;;;10.25;7.75;;;;;;;;;;5106977;27;20969;-88
2021/10/02 12:31:54;;;;;;;9.73;7.68;;;;;;;;;;5099620;27;20406;-89
2021/10/02 12:34:23;;;;;;;10.70;7.30;;;;;;;;;;5129023;27;20405;-89
2021/10/02 12:36:53;;;;;;;10.93;7.55;;;;;;;;;;5127108;27;20400;-88
2021/10/02 12:39:26;;;;;;;12.53;8.23;;;;;;;;;;5127143;27;20466;-88
2021/10/02 12:41:53;;;;;;;12.35;8.07;;;;;;;;;;5129480;27;20777;-89
2021/10/02 12:44:24;;;;;;;9.55;7.47;;;;;;;;;;5128401;27;20478;-89
2021/10/02 12:46:53;;;;;;;10.57;8.13;;;;;;;;;;5118732;27;20752;-87
2021/10/02 12:49:21;;;;;;;10.55;7.60;;;;;;;;;;5123661;27;20417;-85
2021/10/02 12:51:49;;;;;;;9.95;8.02;;;;;;;;;;5123001;27;20405;-85
2021/10/02 12:54:21;;;;;;;11.35;7.43;;;;;;;;;;5121816;27;20430;-87
2021/10/02 12:57:09;;;;;;;11.88;8.00;;;;;;;;;;5127093;27;20403;-86
2021/10/02 12:59:44;;;;;;;11.40;8.10;;;;;;;;;;5123857;27;20397;-78
2021/10/02 13:02:14;;;;;;;8.90;7.28;;;;;;;;;;5122120;27;20804;-80
2021/10/02 13:04:41;;;;;;;9.38;7.22;;;;;;;;;;5121799;27;20441;-82
2021/10/02 13:07:08;;;;;;;11.00;7.80;;;;;;;;;;5109465;27;20400;-89
2021/10/02 13:09:59;;;;;;;9.93;7.82;;;;;;;;;;5121559;27;20389;-87
2021/10/02 13:12:28;;;;;;;10.10;7.53;;;;;;;;;;5118749;27;20799;-86
2021/10/02 13:14:56;;;;;;;9.73;7.35;;;;;;;;;;5123610;27;20915;-87
2021/10/02 13:17:25;;;;;;;8.55;6.47;;;;;;;;;;5125292;27;20405;-87
2021/10/02 13:20:10;;;;;;;8.50;6.32;;;;;;;;;;5127879;27;20449;-88
2021/10/02 13:22:42;;;;;;;8.82;6.93;;;;;;;;;;5120095;27;20408;-89
2021/10/02 13:25:12;;;;;;;8.13;6.67;;;;;;;;;;5112856;27;20410;-87
2021/10/02 13:27:42;;;;;;;8.90;7.22;;;;;;;;;;5126402;27;20412;-87
2021/10/02 13:30:12;;;;;;;10.03;7.50;;;;;;;;;;5127364;27;20423;-88
2021/10/02 13:32:41;;;;;;;11.20;7.27;;;;;;;;;;5115091;27;20393;-89
2021/10/02 13:35:11;;;;;;;10.30;7.63;;;;;;;;;;5120250;27;20401;-86
2021/10/02 13:37:45;;;;;;;9.70;7.20;;;;;;;;;;5099227;27;20906;-87
2021/10/02 13:40:21;;;;;;;8.80;6.75;;;;;;;;;;5119107;27;21177;-86
2021/10/02 13:42:49;;;;;;;11.50;7.80;;;;;;;;;;5116787;27;21268;-87
2021/10/02 13:45:16;;;;;;;11.65;8.07;;;;;;;;;;5113500;27;20808;-88
2021/10/02 13:48:06;;;;;;;10.70;8.02;;;;;;;;;;5114825;27;20423;-87
2021/10/02 13:50:34;;;;;;;9.38;7.60;;;;;;;;;;5114027;27;20406;-87
2021/10/02 13:53:01;;;;;;;9.63;7.40;;;;;;;;;;5118891;27;20424;-87
2021/10/02 13:55:30;;;;;;;9.50;7.17;;;;;;;;;;5097572;27;20499;-93
2021/10/02 13:57:57;;;;;;;10.13;7.38;;;;;;;;;;5125222;27;20403;-88
2021/10/02 14:00:24;;;;;;;9.05;7.50;;;;;;;;;;5126111;27;20397;-94
2021/10/02 14:02:51;;;;;;;8.97;7.40;;;;;;;;;;5109390;27;20400;-92
2021/10/02 14:05:20;;;;;;;9.80;7.22;;;;;;;;;;5123004;27;20455;-93
2021/10/02 14:07:47;;;;;;;9.23;7.70;;;;;;;;;;5125048;27;20458;-93
2021/10/02 14:10:16;;;;;;;9.82;7.65;;;;;;;;;;5129767;27;20409;-92
2021/10/02 14:12:43;;;;;;;10.90;7.20;;;;;;;;;;5127774;27;20408;-92
2021/10/02 14:15:11;;;;;;;12.93;8.00;;;;;;;;;;5122545;27;20413;-94
2021/10/02 14:17:38;;;;;;;10.57;8.10;;;;;;;;;;5124090;27;20397;-93
2021/10/02 14:20:07;;;;;;;10.82;7.78;;;;;;;;;;5119765;27;20416;-92
2021/10/02 14:22:36;;;;;;;9.70;7.88;;;;;;;;;;5135178;27;20381;-91
2021/10/02 14:25:03;;;;;;;8.65;6.80;;;;;;;;;;5149297;27;20421;-86
2021/10/02 14:27:30;;;;;;;9.13;7.18;;;;;;;;;;5146065;27;20385;-86
2021/10/02 14:29:57;;;;;;;8.25;7.15;;;;;;;;;;5149044;27;20380;-87
2021/10/02 14:32:24;;;;;;;10.32;7.30;;;;;;;;;;5139608;27;20385;-89
2021/10/02 14:34:51;;;;;;;9.75;7.13;;;;;;;;;;5144509;27;20397;-89
2021/10/02 14:37:18;;;;;;;12.53;7.40;;;;;;;;;;5145167;27;20393;-87
2021/10/02 14:39:48;;;;;;;9.63;7.13;;;;;;;;;;5151292;27;20405;-86
2021/10/02 14:42:18;;;;;;;10.48;7.57;;;;;;;;;;5147546;27;20383;-86
2021/10/02 14:44:45;;;;;;;12.52;7.13;;;;;;;;;;5139012;27;20401;-86
2021/10/02 14:47:12;;;;;;;11.40;7.18;;;;;;;;;;5128587;27;20423;-88
2021/10/02 14:49:39;;;;;;;10.30;7.50;;;;;;;;;;5123884;27;20392;-88
2021/10/02 14:52:06;;;;;;;8.60;7.27;;;;;;;;;;5127164;27;20405;-88
2021/10/02 14:54:34;;;;;;;9.25;7.00;;;;;;;;;;5122874;27;20396;-88
2021/10/02 14:57:04;;;;;;;12.05;7.78;;;;;;;;;;5128350;27;20397;-88
2021/10/02 14:59:31;;;;;;;9.97;7.40;;;;;;;;;;5125434;27;20405;-88
2021/10/02 15:02:01;;;;;;;8.57;7.43;;;;;;;;;;5122714;27;20480;-89
2021/10/02 15:04:29;;;;;;;9.07;7.40;;;;;;;;;;5096673;27;20547;-88
2021/10/02 15:06:56;;;;;;;9.43;7.47;;;;;;;;;;5100414;27;20401;-88
2021/10/02 15:09:24;;;;;;;9.38;7.43;;;;;;;;;;5127356;27;20397;-90
2021/10/02 15:11:51;;;;;;;11.10;7.13;;;;;;;;;;5120455;27;20798;-92
2021/10/02 15:14:22;;;;;;;8.60;6.73;;;;;;;;;;5130271;27;20412;-91
2021/10/02 15:16:49;;;;;;;9.95;7.20;;;;;;;;;;5122638;27;20472;-92
2021/10/02 15:19:16;;;;;;;9.85;6.90;;;;;;;;;;5116299;27;20536;-93
2021/10/02 15:21:57;;;;;;;9.77;6.90;;;;;;;;;;5114192;28;20415;-92
2021/10/02 15:24:27;;;;;;;7.93;7.13;;;;;;;;;;5124151;27;20401;-92
2021/10/02 15:26:57;;;;;;;11.68;7.47;;;;;;;;;;5120716;27;20923;-92
2021/10/02 15:32:05;;;;;;;10.25;7.13;;;;;;;;;;5123999;27;20382;-91
2021/10/02 15:34:32;;;;;;;8.70;7.50;;;;;;;;;;5120980;27;20434;-85
2021/10/02 15:37:01;;;;;;;9.32;7.18;;;;;;;;;;5117850;27;20437;-86
2021/10/02 15:39:28;;;;;;;9.30;7.35;;;;;;;;;;5118025;27;20484;-86
2021/10/02 15:41:57;;;;;;;8.10;7.10;;;;;;;;;;5112691;27;20736;-86
2021/10/02 15:44:28;;;;;;;8.35;7.43;;;;;;;;;;5116594;27;20432;-87
2021/10/02 15:46:56;;;;;;;8.70;7.18;;;;;;;;;;5109928;27;20451;-88